Time;durP1;ratioP1;P1;durP2;ratioP2;P2;SDS_P1;SDS_P2;PMS_P1;PMS_P2;Temp;Humidity;BMP_temperature;BMP_pressure;BME280_temperature;BME280_humidity;BME280_pressure;Samples;Min_cycle;Max_cycle;Signal;HPM_P1;HPM_P2
2024/01/23 00:01:21;;;;;;;18.63;15.53;;;8.40;99.90;;;;;;4971739;28;20531;-68
2024/01/23 00:03:48;;;;;;;24.73;15.90;;;8.10;99.90;;;;;;4978609;28;20323;-69
2024/01/23 00:06:15;;;;;;;18.80;15.90;;;8.00;99.90;;;;;;4986614;28;20756;-67
2024/01/23 00:08:42;;;;;;;17.67;16.13;;;7.90;99.90;;;;;;4961899;28;20198;-68
2024/01/23 00:11:09;;;;;;;18.40;16.50;;;8.00;99.90;;;;;;4969986;28;20307;-67
2024/01/23 00:13:36;;;;;;;25.90;16.83;;;7.90;99.90;;;;;;4967823;28;20229;-63
2024/01/23 00:16:04;;;;;;;23.37;16.67;;;7.90;99.90;;;;;;4987746;28;20186;-62
2024/01/23 00:18:30;;;;;;;18.50;16.30;;;7.90;99.90;;;;;;4951962;28;20225;-62
2024/01/23 00:20:58;;;;;;;26.60;16.90;;;8.00;99.90;;;;;;4983796;28;20829;-63
2024/01/23 00:23:25;;;;;;;18.13;15.97;;;8.00;99.90;;;;;;4984785;28;20189;-68
2024/01/23 00:25:53;;;;;;;17.53;16.07;;;8.10;99.90;;;;;;4984860;28;20194;-68
2024/01/23 00:28:20;;;;;;;17.27;15.40;;;8.20;99.90;;;;;;4986611;28;20284;-69
2024/01/23 00:30:47;;;;;;;21.10;17.57;;;8.20;99.90;;;;;;4974930;28;20214;-69
2024/01/23 00:33:14;;;;;;;19.03;16.93;;;8.00;99.90;;;;;;4984428;28;20662;-69
2024/01/23 00:35:41;;;;;;;18.57;16.63;;;7.90;99.90;;;;;;4953333;28;20703;-68
2024/01/23 00:38:08;;;;;;;17.83;16.13;;;7.70;99.90;;;;;;4987770;28;20264;-68
2024/01/23 00:40:35;;;;;;;18.27;16.60;;;7.60;99.90;;;;;;4983964;28;20533;-69
2024/01/23 00:43:02;;;;;;;18.93;16.60;;;7.50;99.90;;;;;;4977167;28;20198;-68
2024/01/23 00:45:29;;;;;;;17.83;15.93;;;7.50;99.90;;;;;;4967729;28;20523;-68
2024/01/23 00:47:56;;;;;;;18.43;16.50;;;7.60;99.90;;;;;;4985200;28;20201;-67
2024/01/23 00:50:23;;;;;;;17.40;15.77;;;7.60;99.90;;;;;;4982645;28;20214;-68
2024/01/23 00:52:50;;;;;;;16.70;15.13;;;7.50;99.90;;;;;;4967915;28;20296;-67
2024/01/23 00:55:17;;;;;;;17.23;15.53;;;7.60;99.90;;;;;;4986213;28;20292;-69
2024/01/23 00:57:44;;;;;;;18.53;16.03;;;7.50;99.90;;;;;;4984862;28;20198;-69
2024/01/23 01:00:12;;;;;;;17.27;15.50;;;7.50;99.90;;;;;;4984117;28;20251;-69
2024/01/23 01:02:39;;;;;;;17.63;16.00;;;7.50;99.90;;;;;;4987466;28;20193;-69
2024/01/23 01:05:06;;;;;;;17.27;15.70;;;7.50;99.90;;;;;;4985740;28;20202;-68
2024/01/23 01:07:33;;;;;;;21.60;15.83;;;7.50;99.90;;;;;;4982953;28;20216;-68
2024/01/23 01:10:00;;;;;;;17.07;15.20;;;7.60;99.90;;;;;;4962715;28;20198;-69
2024/01/23 01:12:27;;;;;;;17.50;15.83;;;7.60;99.90;;;;;;4966003;28;20516;-68
2024/01/23 01:14:54;;;;;;;18.73;15.77;;;7.50;99.90;;;;;;4966587;28;20295;-68
2024/01/23 01:17:21;;;;;;;17.77;16.07;;;7.50;99.90;;;;;;4982385;28;20263;-68
2024/01/23 01:19:48;;;;;;;17.57;15.73;;;7.50;99.90;;;;;;4984721;28;20210;-68
2024/01/23 01:22:15;;;;;;;19.57;15.70;;;7.40;99.90;;;;;;4984743;28;20252;-64
2024/01/23 01:24:42;;;;;;;16.63;15.23;;;7.30;99.90;;;;;;4985495;28;20197;-63
2024/01/23 01:27:09;;;;;;;16.50;15.20;;;7.20;99.90;;;;;;4983610;28;20292;-62
2024/01/23 01:29:36;;;;;;;17.40;15.60;;;7.20;99.90;;;;;;4982390;28;20213;-63
2024/01/23 01:32:03;;;;;;;18.43;15.10;;;7.20;99.90;;;;;;4966762;28;20241;-62
2024/01/23 01:34:31;;;;;;;23.33;15.70;;;7.30;99.90;;;;;;4984995;28;20194;-61
2024/01/23 01:36:58;;;;;;;17.13;15.17;;;7.30;99.90;;;;;;4984344;28;20219;-61
2024/01/23 01:39:25;;;;;;;17.00;15.37;;;7.30;99.90;;;;;;4982302;28;20198;-62
2024/01/23 01:41:56;;;;;;;16.70;15.17;;;7.30;99.90;;;;;;4984393;28;20732;-62
2024/01/23 01:44:23;;;;;;;17.63;15.67;;;7.20;99.90;;;;;;4981605;28;20193;-62
2024/01/23 01:46:51;;;;;;;18.17;16.10;;;7.20;99.90;;;;;;4983406;28;20209;-63
2024/01/23 01:49:18;;;;;;;16.80;15.30;;;7.20;99.90;;;;;;4965797;28;20222;-62
2024/01/23 01:51:47;;;;;;;15.80;14.60;;;7.10;99.90;;;;;;4963631;28;20233;-62
2024/01/23 01:54:15;;;;;;;16.60;15.30;;;7.10;99.90;;;;;;4974676;28;20237;-62
2024/01/23 01:56:43;;;;;;;18.03;15.83;;;7.00;99.90;;;;;;4974360;28;20663;-63
2024/01/23 01:59:10;;;;;;;16.73;15.13;;;7.00;99.90;;;;;;4986229;28;20260;-62
2024/01/23 02:01:37;;;;;;;20.37;15.33;;;6.90;99.90;;;;;;4988311;28;20198;-63
2024/01/23 02:04:04;;;;;;;16.20;14.73;;;6.90;99.90;;;;;;4982845;28;20197;-64
2024/01/23 02:06:32;;;;;;;17.07;15.43;;;6.80;99.90;;;;;;4962985;28;20201;-62
2024/01/23 02:08:59;;;;;;;21.37;15.70;;;6.80;99.90;;;;;;4969875;28;20264;-62
2024/01/23 02:11:26;;;;;;;17.20;15.67;;;6.70;99.90;;;;;;4987382;28;20197;-63
2024/01/23 02:13:53;;;;;;;16.80;15.03;;;6.70;99.90;;;;;;4980201;28;20313;-65
2024/01/23 02:16:21;;;;;;;23.37;15.83;;;6.70;99.90;;;;;;4976995;28;20606;-62
2024/01/23 02:18:48;;;;;;;16.87;15.40;;;6.70;99.90;;;;;;4969860;28;20230;-62
2024/01/23 02:21:16;;;;;;;17.43;15.30;;;6.80;99.90;;;;;;4976606;28;20225;-62
2024/01/23 02:23:43;;;;;;;16.63;15.10;;;6.80;99.90;;;;;;4983485;28;20919;-61
2024/01/23 02:26:14;;;;;;;18.60;15.33;;;6.80;99.90;;;;;;4974786;28;20205;-61
2024/01/23 02:28:42;;;;;;;16.27;14.87;;;6.70;99.90;;;;;;4970139;28;20259;-62
2024/01/23 02:31:09;;;;;;;16.77;15.00;;;6.80;99.90;;;;;;4988113;28;20248;-61
2024/01/23 02:33:36;;;;;;;15.83;14.70;;;6.70;99.90;;;;;;4970417;28;20217;-63
2024/01/23 02:36:03;;;;;;;19.00;15.43;;;6.90;99.90;;;;;;4960570;28;20225;-63
2024/01/23 02:38:30;;;;;;;18.90;15.30;;;6.90;99.90;;;;;;4967700;28;20202;-63
2024/01/23 02:40:57;;;;;;;21.63;15.20;;;6.80;99.90;;;;;;4959267;28;20549;-63
2024/01/23 02:43:24;;;;;;;16.53;14.90;;;6.90;99.90;;;;;;4973074;28;20210;-63
2024/01/23 02:45:53;;;;;;;16.80;15.07;;;6.90;99.90;;;;;;4970861;28;20206;-62
2024/01/23 02:48:20;;;;;;;18.00;15.23;;;7.00;99.90;;;;;;4986325;28;20209;-63
2024/01/23 02:50:47;;;;;;;16.47;14.90;;;7.10;99.90;;;;;;4965755;28;20216;-63
2024/01/23 02:53:14;;;;;;;16.40;14.80;;;7.10;99.90;;;;;;4982488;28;20337;-63
2024/01/23 02:55:41;;;;;;;16.93;15.13;;;7.00;99.90;;;;;;4981207;28;20655;-63
2024/01/23 02:58:09;;;;;;;16.57;15.13;;;6.90;99.90;;;;;;4988855;28;20192;-62
2024/01/23 03:04:36;;;;;;;16.67;14.67;;;7.10;99.90;;;;;;4987833;28;20236;-62
2024/01/23 03:07:03;;;;;;;15.93;14.70;;;7.10;99.90;;;;;;4974682;28;20248;-62
2024/01/23 03:09:30;;;;;;;16.47;14.80;;;7.10;99.90;;;;;;4974055;28;20804;-69
2024/01/23 03:11:57;;;;;;;15.93;14.33;;;7.00;99.90;;;;;;4979631;28;20272;-62
2024/01/23 03:14:24;;;;;;;16.07;14.70;;;7.00;99.90;;;;;;4988788;28;20193;-63
2024/01/23 03:16:51;;;;;;;16.63;15.43;;;6.90;99.90;;;;;;4974295;28;20588;-63
2024/01/23 03:19:18;;;;;;;18.60;14.50;;;6.90;99.90;;;;;;4991064;28;20305;-63
2024/01/23 03:21:45;;;;;;;16.73;15.03;;;7.10;99.90;;;;;;4988724;28;20233;-63
2024/01/23 03:24:12;;;;;;;16.87;15.10;;;7.10;99.90;;;;;;4973929;28;20272;-62
2024/01/23 03:26:39;;;;;;;17.43;15.73;;;7.10;99.90;;;;;;4982348;28;20198;-63
2024/01/23 03:29:06;;;;;;;17.87;14.83;;;7.20;99.90;;;;;;4983165;28;20198;-62
2024/01/23 03:31:33;;;;;;;16.83;15.10;;;7.10;99.90;;;;;;4970980;28;20204;-62
2024/01/23 03:34:00;;;;;;;16.50;15.10;;;7.00;99.90;;;;;;4984240;28;20301;-62
2024/01/23 03:36:27;;;;;;;16.80;15.13;;;7.10;99.90;;;;;;4990402;28;20190;-62
2024/01/23 03:38:54;;;;;;;16.23;14.70;;;7.10;99.90;;;;;;4990297;28;20830;-62
2024/01/23 03:41:21;;;;;;;16.47;14.80;;;7.10;99.90;;;;;;4990491;28;20602;-68
2024/01/23 03:43:48;;;;;;;20.63;14.93;;;7.00;99.90;;;;;;4989875;28;20541;-67
2024/01/23 03:46:15;;;;;;;20.20;14.90;;;6.90;99.90;;;;;;4986024;28;20233;-67
2024/01/23 03:48:42;;;;;;;17.50;15.37;;;6.90;99.90;;;;;;4973304;28;20610;-68
2024/01/23 03:51:09;;;;;;;18.30;15.13;;;6.90;99.90;;;;;;4974025;28;20190;-68
2024/01/23 03:53:36;;;;;;;18.00;16.00;;;6.90;99.90;;;;;;4969587;28;20234;-68
2024/01/23 03:56:03;;;;;;;19.93;15.90;;;6.90;99.90;;;;;;4966022;28;20201;-68
2024/01/23 03:58:30;;;;;;;16.93;15.40;;;7.00;99.90;;;;;;4981677;28;20189;-68
2024/01/23 04:00:59;;;;;;;25.27;16.43;;;6.90;99.90;;;;;;4992879;28;20233;-67
2024/01/23 04:03:26;;;;;;;18.90;15.57;;;7.00;99.90;;;;;;4968353;28;20509;-67
2024/01/23 04:05:53;;;;;;;16.63;15.07;;;6.90;99.90;;;;;;4955036;28;20305;-68
2024/01/23 04:08:20;;;;;;;17.00;15.33;;;7.00;99.90;;;;;;4986673;28;20221;-68
2024/01/23 04:10:47;;;;;;;18.60;15.50;;;7.00;99.90;;;;;;4981587;28;20253;-68
2024/01/23 04:13:14;;;;;;;16.70;15.17;;;7.00;99.90;;;;;;4991192;28;20213;-66
2024/01/23 04:15:41;;;;;;;17.27;15.80;;;7.20;99.90;;;;;;4990536;28;20643;-66
2024/01/23 04:18:08;;;;;;;17.50;15.70;;;7.20;99.90;;;;;;4973316;28;20289;-66
2024/01/23 04:20:37;;;;;;;17.00;15.60;;;7.00;99.90;;;;;;4981572;28;20572;-67
2024/01/23 04:23:05;;;;;;;17.47;15.43;;;7.10;99.90;;;;;;4966850;28;20557;-67
2024/01/23 04:25:32;;;;;;;25.80;16.60;;;7.10;99.90;;;;;;4982899;28;20190;-67
2024/01/23 04:27:59;;;;;;;18.03;16.20;;;7.20;99.90;;;;;;4985906;28;20194;-67
2024/01/23 04:30:26;;;;;;;20.30;15.77;;;7.20;99.90;;;;;;4961360;28;20230;-67
2024/01/23 04:32:53;;;;;;;16.20;15.00;;;7.30;99.90;;;;;;4978202;28;20650;-67
2024/01/23 04:35:20;;;;;;;22.70;16.07;;;7.30;99.90;;;;;;4983865;28;20198;-68
2024/01/23 04:37:47;;;;;;;17.50;15.50;;;7.30;99.90;;;;;;4972442;28;20300;-67
2024/01/23 04:40:14;;;;;;;17.07;15.40;;;7.40;99.90;;;;;;4990199;28;20198;-68
2024/01/23 04:42:41;;;;;;;19.90;15.80;;;7.30;99.90;;;;;;4987230;28;20229;-68
2024/01/23 04:45:09;;;;;;;17.43;15.80;;;7.30;99.90;;;;;;4983028;28;20213;-67
2024/01/23 04:47:36;;;;;;;18.50;16.43;;;7.40;99.90;;;;;;4991995;28;20198;-66
2024/01/23 04:50:03;;;;;;;17.57;15.70;;;7.40;99.90;;;;;;4971050;28;20201;-67
2024/01/23 04:52:30;;;;;;;19.30;16.73;;;7.40;99.90;;;;;;4987544;28;20213;-68
2024/01/23 04:54:57;;;;;;;19.53;16.03;;;7.40;99.90;;;;;;4984168;28;20234;-67
2024/01/23 04:57:31;;;;;;;28.20;17.03;;;7.30;99.90;;;;;;4978894;28;20590;-68
2024/01/23 04:59:58;;;;;;;17.57;15.83;;;7.20;99.90;;;;;;4989399;28;20248;-68
2024/01/23 05:02:28;;;;;;;17.67;15.63;;;7.20;99.90;;;;;;4989661;28;20612;-63
2024/01/23 05:04:54;;;;;;;19.57;15.77;;;7.20;99.90;;;;;;4964372;28;20288;-62
2024/01/23 05:07:21;;;;;;;19.83;15.37;;;7.10;99.90;;;;;;4969651;28;20205;-63
2024/01/23 05:09:48;;;;;;;16.67;14.93;;;7.10;99.90;;;;;;4988266;28;20230;-63
2024/01/23 05:12:16;;;;;;;17.07;15.47;;;7.00;99.90;;;;;;4965409;28;20240;-63
2024/01/23 05:14:43;;;;;;;18.60;15.53;;;7.10;99.90;;;;;;4987634;28;20204;-62
2024/01/23 05:17:10;;;;;;;18.37;15.37;;;7.10;99.90;;;;;;4983537;28;20226;-62
2024/01/23 05:19:37;;;;;;;17.10;15.73;;;7.20;99.90;;;;;;4968869;28;20659;-62
2024/01/23 05:22:05;;;;;;;16.13;14.93;;;7.20;99.90;;;;;;4964785;28;20189;-63
2024/01/23 05:24:31;;;;;;;17.47;15.67;;;7.20;99.90;;;;;;4988182;28;20218;-61
2024/01/23 05:26:59;;;;;;;17.70;15.83;;;7.20;99.90;;;;;;4979450;28;20752;-62
2024/01/23 05:29:26;;;;;;;16.63;14.90;;;7.20;99.90;;;;;;4965855;28;20189;-62
2024/01/23 05:31:53;;;;;;;20.20;14.70;;;7.20;99.90;;;;;;4981922;28;20208;-63
2024/01/23 05:34:20;;;;;;;19.97;14.97;;;7.30;99.90;;;;;;4979483;28;20316;-64
2024/01/23 05:36:47;;;;;;;16.17;14.67;;;7.20;99.90;;;;;;4988412;28;20193;-65
2024/01/23 05:39:14;;;;;;;19.80;14.90;;;7.20;99.90;;;;;;4966369;28;20186;-64
2024/01/23 05:41:41;;;;;;;22.03;15.97;;;7.10;99.90;;;;;;4978476;28;20194;-62
2024/01/23 05:44:08;;;;;;;16.97;15.57;;;7.10;99.90;;;;;;4984567;28;20229;-63
2024/01/23 05:46:36;;;;;;;16.90;15.00;;;7.10;99.90;;;;;;4984945;28;20202;-64
2024/01/23 05:49:02;;;;;;;20.93;16.50;;;7.10;99.90;;;;;;4968664;28;20659;-62
2024/01/23 05:51:30;;;;;;;18.20;15.70;;;7.10;99.90;;;;;;4989306;28;20217;-63
2024/01/23 05:53:57;;;;;;;21.00;15.70;;;7.10;99.90;;;;;;4980532;28;20794;-62
2024/01/23 05:56:23;;;;;;;23.60;16.13;;;7.10;99.90;;;;;;4969773;28;20249;-62
2024/01/23 05:58:50;;;;;;;17.77;15.67;;;7.10;99.90;;;;;;4984102;28;20201;-65
2024/01/23 06:01:17;;;;;;;17.70;15.83;;;7.10;99.90;;;;;;4956191;28;20523;-70
2024/01/23 06:03:44;;;;;;;21.43;16.00;;;7.10;99.90;;;;;;4960173;28;20631;-64
2024/01/23 06:06:11;;;;;;;22.70;16.33;;;7.10;99.90;;;;;;4976850;28;20190;-64
2024/01/23 06:08:38;;;;;;;19.03;15.90;;;7.00;99.90;;;;;;4970640;28;20616;-64
2024/01/23 06:11:06;;;;;;;24.17;16.83;;;7.10;99.90;;;;;;4984682;28;20197;-64
2024/01/23 06:13:33;;;;;;;18.17;16.30;;;7.10;99.90;;;;;;4988111;28;20221;-69
2024/01/23 06:16:00;;;;;;;17.20;15.43;;;7.10;99.90;;;;;;4988391;28;20193;-68
2024/01/23 06:18:26;;;;;;;17.33;15.83;;;7.10;99.90;;;;;;4994566;28;20248;-70
2024/01/23 06:20:54;;;;;;;16.83;15.53;;;7.10;99.90;;;;;;4986261;28;20276;-70
2024/01/23 06:23:21;;;;;;;16.77;15.03;;;7.10;99.90;;;;;;4982311;28;20370;-69
2024/01/23 06:25:48;;;;;;;20.30;16.17;;;7.10;99.90;;;;;;4985313;28;20673;-70
2024/01/23 06:28:14;;;;;;;17.20;15.67;;;7.10;99.90;;;;;;4971156;28;20884;-70
2024/01/23 06:30:41;;;;;;;17.90;15.90;;;7.10;99.90;;;;;;4974415;28;20204;-70
2024/01/23 06:33:08;;;;;;;17.77;16.37;;;7.10;99.90;;;;;;4990515;28;20638;-70
2024/01/23 06:35:36;;;;;;;17.00;15.50;;;7.10;99.90;;;;;;4960765;28;20202;-69
2024/01/23 06:38:03;;;;;;;19.03;16.53;;;7.20;99.90;;;;;;4988032;28;20189;-69
2024/01/23 06:40:30;;;;;;;17.33;15.43;;;7.20;99.90;;;;;;4985568;28;20194;-69
2024/01/23 06:42:57;;;;;;;17.40;15.63;;;7.10;99.90;;;;;;4988856;28;20197;-68
2024/01/23 06:45:24;;;;;;;17.27;15.77;;;7.00;99.90;;;;;;4970228;28;20367;-70
2024/01/23 06:47:51;;;;;;;18.90;17.00;;;7.00;99.90;;;;;;4987588;28;20769;-69
2024/01/23 06:50:18;;;;;;;18.23;16.37;;;6.90;99.90;;;;;;4985502;28;20265;-69
2024/01/23 06:52:45;;;;;;;24.27;16.50;;;6.90;99.90;;;;;;4978858;28;20229;-69
2024/01/23 06:55:12;;;;;;;25.43;16.33;;;6.90;99.90;;;;;;4965327;28;20251;-69
2024/01/23 06:57:39;;;;;;;21.93;16.17;;;6.90;99.90;;;;;;4981546;28;20546;-70
2024/01/23 07:00:08;;;;;;;17.33;15.60;;;6.90;99.90;;;;;;4983566;28;20645;-69
2024/01/23 07:02:35;;;;;;;24.70;17.30;;;6.80;99.90;;;;;;4980768;28;20294;-68
2024/01/23 07:05:02;;;;;;;17.20;16.00;;;6.80;99.90;;;;;;4955089;28;20194;-69
2024/01/23 07:07:29;;;;;;;17.77;16.10;;;6.80;99.90;;;;;;4956312;28;20368;-69
2024/01/23 07:09:55;;;;;;;18.47;15.90;;;6.80;99.90;;;;;;4971628;28;20209;-67
2024/01/23 07:12:22;;;;;;;21.20;16.80;;;6.80;99.90;;;;;;4989912;28;20291;-68
2024/01/23 07:14:49;;;;;;;18.50;15.80;;;6.70;99.90;;;;;;4968776;28;20221;-69
2024/01/23 07:17:17;;;;;;;18.67;16.50;;;6.70;99.90;;;;;;4968289;28;20264;-68
2024/01/23 07:19:44;;;;;;;17.37;15.80;;;6.80;99.90;;;;;;4973393;28;20264;-69
2024/01/23 07:22:11;;;;;;;18.33;16.43;;;6.80;99.90;;;;;;4982165;28;20198;-63
2024/01/23 07:24:38;;;;;;;17.57;15.97;;;6.80;99.90;;;;;;4965538;28;20256;-63
2024/01/23 07:27:05;;;;;;;18.07;16.03;;;6.80;99.90;;;;;;4956532;28;20229;-63
2024/01/23 07:29:32;;;;;;;16.90;15.67;;;6.80;99.90;;;;;;4968358;28;20194;-63
2024/01/23 07:31:59;;;;;;;20.03;16.27;;;6.90;99.90;;;;;;4985330;28;20658;-65
2024/01/23 07:34:26;;;;;;;16.93;15.40;;;6.80;99.90;;;;;;4971654;28;20249;-63
2024/01/23 07:36:53;;;;;;;18.37;16.07;;;6.80;99.90;;;;;;4973558;28;20213;-63
2024/01/23 07:39:21;;;;;;;17.90;16.17;;;6.80;99.90;;;;;;4991444;28;20256;-64
2024/01/23 07:41:48;;;;;;;17.77;16.03;;;6.80;99.90;;;;;;4973320;28;20728;-65
2024/01/23 07:44:16;;;;;;;20.20;16.10;;;6.90;99.90;;;;;;4972934;28;20201;-64
2024/01/23 07:46:43;;;;;;;23.93;16.37;;;6.80;99.90;;;;;;4976410;28;20197;-64
2024/01/23 07:49:10;;;;;;;17.77;15.93;;;6.90;99.90;;;;;;4974235;28;20743;-64
2024/01/23 07:51:48;;;;;;;22.40;16.30;;;7.00;99.90;;;;;;4974318;28;20644;-64
2024/01/23 07:54:15;;;;;;;19.20;16.17;;;7.00;99.90;;;;;;4965687;28;20241;-63
2024/01/23 07:56:43;;;;;;;17.70;16.00;;;6.90;99.90;;;;;;4974201;28;20240;-64
2024/01/23 07:59:10;;;;;;;17.77;16.07;;;6.90;99.90;;;;;;4979501;28;20276;-63
2024/01/23 08:01:37;;;;;;;17.80;16.10;;;6.90;99.90;;;;;;4968949;28;20210;-63
2024/01/23 08:04:04;;;;;;;18.30;16.37;;;6.90;99.90;;;;;;4982008;28;20198;-63
2024/01/23 08:06:31;;;;;;;19.13;15.60;;;6.90;99.90;;;;;;4979771;28;20582;-63
2024/01/23 08:08:58;;;;;;;19.70;16.27;;;6.90;99.90;;;;;;4980949;28;20202;-64
2024/01/23 08:11:25;;;;;;;19.90;15.83;;;7.00;99.90;;;;;;4989232;28;20205;-63
2024/01/23 08:13:56;;;;;;;21.77;16.03;;;7.00;99.90;;;;;;4989724;28;20225;-64
2024/01/23 08:16:25;;;;;;;20.83;16.13;;;7.00;99.90;;;;;;4983506;28;20252;-64
2024/01/23 08:18:52;;;;;;;18.40;16.70;;;7.00;99.90;;;;;;4972598;28;20252;-65
2024/01/23 08:21:19;;;;;;;17.33;15.70;;;7.00;99.90;;;;;;4966604;28;20205;-64
2024/01/23 08:23:46;;;;;;;19.00;15.90;;;7.00;99.90;;;;;;4990543;28;20224;-65
2024/01/23 08:26:13;;;;;;;17.57;15.97;;;7.00;99.90;;;;;;4988746;28;20284;-65
2024/01/23 08:28:50;;;;;;;24.37;17.17;;;7.10;99.90;;;;;;4973300;28;20197;-64
2024/01/23 08:31:17;;;;;;;23.30;16.53;;;7.00;99.90;;;;;;4990336;28;20219;-64
2024/01/23 08:33:44;;;;;;;20.10;16.53;;;7.00;99.90;;;;;;4980438;28;20351;-64
2024/01/23 08:36:12;;;;;;;20.87;16.17;;;7.00;99.90;;;;;;4973134;28;20229;-66
2024/01/23 08:38:39;;;;;;;17.57;15.97;;;7.00;99.90;;;;;;4973161;28;20713;-64
2024/01/23 08:41:10;;;;;;;17.83;16.03;;;7.00;99.90;;;;;;4981077;28;20577;-64
2024/01/23 08:43:36;;;;;;;20.50;16.37;;;7.10;99.90;;;;;;4989294;28;20197;-64
2024/01/23 08:46:04;;;;;;;21.80;16.40;;;7.10;99.90;;;;;;4973173;28;20292;-65
2024/01/23 08:48:31;;;;;;;18.70;16.83;;;7.00;99.90;;;;;;4973245;28;20310;-65
2024/01/23 08:50:58;;;;;;;18.37;16.70;;;7.10;99.90;;;;;;4991588;28;20194;-65
2024/01/23 08:53:25;;;;;;;19.73;16.80;;;7.10;99.90;;;;;;4972169;28;20292;-64
2024/01/23 08:55:53;;;;;;;18.40;16.67;;;7.10;99.90;;;;;;4959132;28;20198;-63
2024/01/23 08:58:20;;;;;;;21.53;16.93;;;7.20;99.90;;;;;;4983944;28;20606;-65
2024/01/23 09:00:48;;;;;;;22.00;16.83;;;7.20;99.90;;;;;;4993333;28;20190;-64
2024/01/23 09:03:15;;;;;;;18.33;16.53;;;7.20;99.90;;;;;;4990811;28;20288;-64
2024/01/23 09:05:42;;;;;;;18.63;16.63;;;7.30;99.90;;;;;;4969353;28;20194;-64
2024/01/23 09:08:12;;;;;;;19.60;16.90;;;7.40;99.90;;;;;;4972106;28;20201;-64
2024/01/23 09:10:39;;;;;;;18.20;16.40;;;7.60;99.90;;;;;;4988797;28;20203;-64
2024/01/23 09:13:06;;;;;;;17.43;15.73;;;7.50;99.90;;;;;;4954030;28;20256;-64
2024/01/23 09:15:33;;;;;;;18.53;16.63;;;7.50;99.90;;;;;;4972620;28;20700;-65
2024/01/23 09:18:00;;;;;;;18.23;16.57;;;7.70;99.90;;;;;;4985258;28;20206;-65
2024/01/23 09:20:28;;;;;;;17.70;16.33;;;7.60;99.90;;;;;;4990477;28;20295;-64
2024/01/23 09:22:55;;;;;;;24.23;16.50;;;7.60;99.90;;;;;;4984511;28;20197;-64
2024/01/23 09:25:22;;;;;;;24.90;16.33;;;7.80;99.90;;;;;;4965413;28;20291;-64
2024/01/23 09:27:49;;;;;;;17.97;16.40;;;8.50;99.90;;;;;;4967984;28;20248;-64
2024/01/23 09:30:19;;;;;;;18.90;16.10;;;9.20;99.90;;;;;;4982515;28;20206;-64
2024/01/23 09:32:53;;;;;;;20.53;15.97;;;9.10;99.90;;;;;;4982635;28;20205;-68
2024/01/23 09:35:20;;;;;;;22.40;16.70;;;11.60;99.90;;;;;;4939206;28;20317;-69
2024/01/23 09:37:47;;;;;;;18.23;16.37;;;11.50;99.90;;;;;;4989431;28;20671;-69
2024/01/23 09:40:15;;;;;;;19.80;16.77;;;10.60;99.90;;;;;;4962274;28;20202;-70
2024/01/23 09:42:44;;;;;;;18.47;16.53;;;10.00;99.90;;;;;;4964175;28;20197;-69
2024/01/23 09:45:17;;;;;;;18.00;16.30;;;12.40;99.90;;;;;;4969449;28;20221;-70
2024/01/23 09:47:47;;;;;;;23.03;16.30;;;15.10;99.90;;;;;;4963710;28;20600;-70
2024/01/23 09:50:20;;;;;;;19.95;16.35;;;15.00;99.90;;;;;;4988983;28;20289;-70
2024/01/23 09:52:48;;;;;;;20.60;17.35;;;17.00;99.90;;;;;;4970821;28;20761;-70
2024/01/23 09:55:17;;;;;;;19.75;17.63;;;17.50;99.90;;;;;;4971490;28;20253;-71
2024/01/23 09:57:48;;;;;;;20.85;17.58;;;18.00;99.90;;;;;;4987940;28;20236;-71
2024/01/23 10:00:16;;;;;;;20.77;18.67;;;14.40;99.90;;;;;;4954825;28;20221;-70
2024/01/23 10:02:44;;;;;;;20.23;17.85;;;16.10;99.90;;;;;;4964412;28;20610;-70
2024/01/23 10:05:12;;;;;;;21.35;17.70;;;15.00;99.90;;;;;;4954909;28;20209;-70
2024/01/23 10:07:40;;;;;;;28.05;18.77;;;14.70;99.90;;;;;;4969909;28;20281;-68
2024/01/23 10:10:14;;;;;;;19.77;17.77;;;12.90;99.90;;;;;;4972304;28;20197;-70
2024/01/23 10:12:45;;;;;;;23.27;18.77;;;11.30;99.90;;;;;;4989580;28;20259;-70
2024/01/23 10:15:16;;;;;;;26.17;18.70;;;10.90;99.90;;;;;;4972143;28;20630;-71
2024/01/23 10:17:44;;;;;;;25.17;18.47;;;10.00;99.90;;;;;;4970236;28;20218;-72
2024/01/23 10:20:13;;;;;;;21.20;16.87;;;10.70;99.90;;;;;;4992980;28;20229;-69
2024/01/23 10:22:40;;;;;;;26.17;18.33;;;10.90;99.90;;;;;;4982674;28;20768;-70
2024/01/23 10:25:10;;;;;;;25.93;17.43;;;11.70;99.90;;;;;;4944501;28;20198;-70
2024/01/23 10:27:37;;;;;;;24.70;17.53;;;12.30;99.90;;;;;;4957653;28;20206;-70
2024/01/23 10:30:05;;;;;;;20.83;18.23;;;11.10;99.90;;;;;;4968947;28;20551;-69
2024/01/23 10:32:32;;;;;;;22.53;18.17;;;10.10;99.90;;;;;;4982373;28;20285;-70
2024/01/23 10:34:59;;;;;;;20.67;17.63;;;10.90;99.90;;;;;;4972603;28;20269;-69
2024/01/23 10:37:26;;;;;;;22.27;18.23;;;14.10;99.90;;;;;;4954171;28;20197;-70
2024/01/23 10:39:53;;;;;;;23.13;17.97;;;13.10;99.90;;;;;;4984005;28;20190;-69
2024/01/23 10:42:20;;;;;;;21.93;17.60;;;13.70;99.90;;;;;;4984057;28;20202;-70
2024/01/23 10:44:50;;;;;;;26.20;17.83;;;15.00;99.90;;;;;;4987242;28;20794;-64
2024/01/23 10:47:18;;;;;;;21.70;16.77;;;14.10;99.90;;;;;;4949595;28;20296;-65
2024/01/23 10:49:46;;;;;;;19.00;16.83;;;12.90;99.90;;;;;;4970610;28;20201;-64
2024/01/23 10:52:18;;;;;;;20.60;17.50;;;12.40;99.90;;;;;;4987844;28;20197;-64
2024/01/23 10:54:46;;;;;;;20.80;17.33;;;11.70;99.90;;;;;;4977108;28;20222;-64
2024/01/23 10:57:24;;;;;;;22.43;17.23;;;11.30;99.90;;;;;;4986169;28;20277;-63
2024/01/23 10:59:51;;;;;;;25.20;17.13;;;11.30;99.90;;;;;;4949347;28;20205;-63
2024/01/23 11:02:37;;;;;;;23.93;17.30;;;10.90;99.90;;;;;;4977573;28;20279;-64
2024/01/23 11:05:05;;;;;;;24.00;16.97;;;11.60;99.90;;;;;;4959832;28;20212;-64
2024/01/23 11:07:49;;;;;;;19.47;16.87;;;12.40;99.90;;;;;;4973568;28;20206;-64
2024/01/23 11:10:36;;;;;;;25.37;17.90;;;12.70;99.90;;;;;;4989891;28;20189;-64
2024/01/23 11:13:11;;;;;;;25.20;17.15;;;13.40;99.90;;;;;;4990993;28;20543;-65
2024/01/23 11:15:39;;;;;;;19.65;17.65;;;14.50;99.90;;;;;;4954755;28;20212;-65
2024/01/23 11:18:28;;;;;;;18.73;16.83;;;14.30;99.90;;;;;;4966351;28;20202;-65
2024/01/23 11:21:05;;;;;;;19.25;17.25;;;12.20;99.90;;;;;;4979598;28;20232;-65
2024/01/23 11:23:38;;;;;;;22.42;17.02;;;14.30;99.90;;;;;;4977100;28;20297;-64
2024/01/23 11:26:22;;;;;;;22.50;17.33;;;13.10;99.90;;;;;;4982920;28;20285;-64
2024/01/23 11:28:53;;;;;;;22.33;17.27;;;12.20;99.90;;;;;;4973198;28;20407;-64
2024/01/23 11:31:22;;;;;;;22.77;17.83;;;13.20;99.90;;;;;;4958783;28;20205;-64
2024/01/23 11:33:51;;;;;;;19.48;17.60;;;14.70;99.90;;;;;;4972486;28;20193;-65
2024/01/23 11:36:24;;;;;;;20.02;17.70;;;15.50;99.90;;;;;;4963422;28;20588;-65
2024/01/23 11:38:55;;;;;;;23.87;17.50;;;13.30;99.90;;;;;;4972270;28;20679;-65
2024/01/23 11:41:27;;;;;;;21.80;18.05;;;11.40;99.90;;;;;;4991185;28;20204;-64
2024/01/23 11:44:01;;;;;;;20.50;17.80;;;11.60;99.90;;;;;;4979653;28;20229;-71
2024/01/23 11:46:30;;;;;;;26.50;17.57;;;11.80;99.90;;;;;;4980481;28;20190;-72
2024/01/23 11:48:57;;;;;;;19.35;17.33;;;12.80;99.90;;;;;;4958615;28;20750;-69
2024/01/23 11:51:27;;;;;;;19.23;17.27;;;11.60;99.90;;;;;;4972536;28;20198;-65
2024/01/23 11:53:58;;;;;;;20.73;17.37;;;11.50;99.90;;;;;;4969748;28;20241;-65
2024/01/23 11:56:29;;;;;;;19.30;17.30;;;11.10;99.90;;;;;;4974041;28;20283;-64
2024/01/23 11:58:58;;;;;;;22.47;17.63;;;12.90;99.90;;;;;;4990834;28;20248;-64
2024/01/23 12:01:29;;;;;;;25.63;18.43;;;12.80;99.90;;;;;;4954686;28;20626;-69
2024/01/23 12:03:57;;;;;;;24.20;17.97;;;12.60;99.90;;;;;;4972787;28;20202;-69
2024/01/23 12:06:28;;;;;;;19.23;17.17;;;11.00;99.90;;;;;;4972488;28;20202;-69
2024/01/23 12:08:56;;;;;;;21.33;17.50;;;11.70;99.90;;;;;;4973918;28;20332;-70
2024/01/23 12:11:23;;;;;;;25.33;18.50;;;12.20;99.90;;;;;;4969355;28;20204;-72
2024/01/23 12:13:50;;;;;;;20.67;18.67;;;11.40;99.90;;;;;;4978009;28;20198;-70
2024/01/23 12:16:18;;;;;;;23.17;19.30;;;10.60;99.90;;;;;;4968074;28;20221;-68
2024/01/23 12:18:55;;;;;;;22.17;18.57;;;11.40;99.90;;;;;;4970569;28;20181;-69
2024/01/23 12:21:22;;;;;;;20.03;18.23;;;11.80;99.90;;;;;;4999968;28;20197;-69
2024/01/23 12:23:49;;;;;;;20.60;18.40;;;11.20;99.90;;;;;;4968442;28;20654;-69
2024/01/23 12:26:36;;;;;;;25.33;19.13;;;10.70;99.90;;;;;;4982320;28;20197;-69
2024/01/23 12:29:04;;;;;;;21.20;19.07;;;11.00;99.90;;;;;;4964957;28;20206;-68
2024/01/23 12:31:31;;;;;;;20.70;18.33;;;10.40;99.90;;;;;;4962985;28;20198;-69
2024/01/23 12:33:58;;;;;;;20.20;18.33;;;10.70;99.90;;;;;;4954112;28;20253;-68
2024/01/23 12:36:28;;;;;;;22.47;18.73;;;10.60;99.90;;;;;;4976484;28;20209;-70
2024/01/23 12:38:56;;;;;;;22.57;18.10;;;10.50;99.90;;;;;;4972108;28;20224;-67
2024/01/23 12:41:24;;;;;;;22.23;18.23;;;10.80;99.90;;;;;;4975321;28;20690;-69